sensor_id;sensor_type;location;lat;lon;timestamp;P1;durP1;ratioP1;P2;durP2;ratioP2
71513;SDS011;59335;46.652;21.272;2023-04-03T00:02:47;3.90;;;1.73;;
71513;SDS011;59335;46.652;21.272;2023-04-03T00:05:50;3.53;;;1.73;;
71513;SDS011;59335;46.652;21.272;2023-04-03T00:08:53;3.63;;;1.85;;
71513;SDS011;59335;46.652;21.272;2023-04-03T00:11:56;4.05;;;1.90;;
71513;SDS011;59335;46.652;21.272;2023-04-03T00:14:59;3.30;;;1.67;;
71513;SDS011;59335;46.652;21.272;2023-04-03T00:18:02;3.93;;;1.83;;
71513;SDS011;59335;46.652;21.272;2023-04-03T00:21:05;3.15;;;1.30;;
71513;SDS011;59335;46.652;21.272;2023-04-03T00:24:09;3.22;;;1.70;;
71513;SDS011;59335;46.652;21.272;2023-04-03T00:27:11;3.20;;;1.73;;
71513;SDS011;59335;46.652;21.272;2023-04-03T00:30:16;3.28;;;1.60;;
71513;SDS011;59335;46.652;21.272;2023-04-03T00:33:20;4.07;;;1.70;;
71513;SDS011;59335;46.652;21.272;2023-04-03T00:36:24;3.33;;;1.65;;
71513;SDS011;59335;46.652;21.272;2023-04-03T00:39:27;3.35;;;1.60;;
71513;SDS011;59335;46.652;21.272;2023-04-03T00:42:30;3.72;;;1.83;;
71513;SDS011;59335;46.652;21.272;2023-04-03T00:45:34;3.60;;;1.80;;
71513;SDS011;59335;46.652;21.272;2023-04-03T00:48:40;3.17;;;1.60;;
71513;SDS011;59335;46.652;21.272;2023-04-03T00:51:46;3.63;;;1.88;;
71513;SDS011;59335;46.652;21.272;2023-04-03T00:54:49;3.45;;;1.70;;
71513;SDS011;59335;46.652;21.272;2023-04-03T00:57:54;3.70;;;1.73;;
71513;SDS011;59335;46.652;21.272;2023-04-03T01:00:58;4.30;;;1.70;;
71513;SDS011;59335;46.652;21.272;2023-04-03T01:04:05;4.10;;;1.70;;
71513;SDS011;59335;46.652;21.272;2023-04-03T01:10:14;3.10;;;1.52;;
71513;SDS011;59335;46.652;21.272;2023-04-03T01:13:19;3.05;;;1.40;;
71513;SDS011;59335;46.652;21.272;2023-04-03T01:16:30;3.40;;;1.55;;
71513;SDS011;59335;46.652;21.272;2023-04-03T01:19:34;4.13;;;1.67;;
71513;SDS011;59335;46.652;21.272;2023-04-03T01:25:58;3.17;;;1.48;;
71513;SDS011;59335;46.652;21.272;2023-04-03T01:29:01;3.85;;;1.63;;
71513;SDS011;59335;46.652;21.272;2023-04-03T01:32:05;3.75;;;1.50;;
71513;SDS011;59335;46.652;21.272;2023-04-03T01:35:08;4.87;;;1.50;;
71513;SDS011;59335;46.652;21.272;2023-04-03T01:38:13;2.95;;;1.50;;
71513;SDS011;59335;46.652;21.272;2023-04-03T01:41:15;3.42;;;1.75;;
71513;SDS011;59335;46.652;21.272;2023-04-03T01:44:20;3.97;;;1.85;;
71513;SDS011;59335;46.652;21.272;2023-04-03T01:47:23;3.20;;;1.60;;
71513;SDS011;59335;46.652;21.272;2023-04-03T01:50:26;3.47;;;1.33;;
71513;SDS011;59335;46.652;21.272;2023-04-03T01:53:29;4.13;;;1.63;;
71513;SDS011;59335;46.652;21.272;2023-04-03T01:56:31;3.50;;;1.65;;
71513;SDS011;59335;46.652;21.272;2023-04-03T01:59:35;3.13;;;1.60;;
71513;SDS011;59335;46.652;21.272;2023-04-03T02:02:38;3.35;;;1.60;;
71513;SDS011;59335;46.652;21.272;2023-04-03T02:05:41;2.93;;;1.50;;
71513;SDS011;59335;46.652;21.272;2023-04-03T02:08:44;3.58;;;1.65;;
71513;SDS011;59335;46.652;21.272;2023-04-03T02:11:47;3.47;;;1.50;;
71513;SDS011;59335;46.652;21.272;2023-04-03T02:14:50;3.60;;;1.50;;
71513;SDS011;59335;46.652;21.272;2023-04-03T02:17:53;3.17;;;1.40;;
71513;SDS011;59335;46.652;21.272;2023-04-03T02:20:56;2.80;;;1.40;;
71513;SDS011;59335;46.652;21.272;2023-04-03T02:23:59;3.72;;;1.73;;
71513;SDS011;59335;46.652;21.272;2023-04-03T02:27:02;2.80;;;1.52;;
71513;SDS011;59335;46.652;21.272;2023-04-03T02:30:05;3.38;;;1.65;;
71513;SDS011;59335;46.652;21.272;2023-04-03T02:33:08;2.92;;;1.60;;
71513;SDS011;59335;46.652;21.272;2023-04-03T02:36:13;2.43;;;1.43;;
71513;SDS011;59335;46.652;21.272;2023-04-03T02:39:19;3.10;;;1.58;;
71513;SDS011;59335;46.652;21.272;2023-04-03T02:42:22;3.45;;;1.52;;
71513;SDS011;59335;46.652;21.272;2023-04-03T02:45:26;2.88;;;1.70;;
71513;SDS011;59335;46.652;21.272;2023-04-03T02:48:29;3.60;;;1.80;;
71513;SDS011;59335;46.652;21.272;2023-04-03T02:51:31;2.93;;;1.43;;
71513;SDS011;59335;46.652;21.272;2023-04-03T02:54:35;2.75;;;1.35;;
71513;SDS011;59335;46.652;21.272;2023-04-03T02:57:41;2.40;;;1.35;;
71513;SDS011;59335;46.652;21.272;2023-04-03T03:00:44;2.78;;;1.40;;
71513;SDS011;59335;46.652;21.272;2023-04-03T03:03:47;2.50;;;1.20;;
71513;SDS011;59335;46.652;21.272;2023-04-03T03:06:49;2.93;;;1.70;;
71513;SDS011;59335;46.652;21.272;2023-04-03T03:09:52;3.30;;;1.80;;
71513;SDS011;59335;46.652;21.272;2023-04-03T03:12:55;3.50;;;1.65;;
71513;SDS011;59335;46.652;21.272;2023-04-03T03:15:58;3.08;;;1.73;;
71513;SDS011;59335;46.652;21.272;2023-04-03T03:19:01;2.83;;;1.40;;
71513;SDS011;59335;46.652;21.272;2023-04-03T03:22:04;2.70;;;1.50;;
71513;SDS011;59335;46.652;21.272;2023-04-03T03:25:07;3.03;;;1.50;;
71513;SDS011;59335;46.652;21.272;2023-04-03T03:28:11;3.08;;;1.48;;
71513;SDS011;59335;46.652;21.272;2023-04-03T03:31:14;3.40;;;1.50;;
71513;SDS011;59335;46.652;21.272;2023-04-03T03:34:17;5.22;;;1.60;;
71513;SDS011;59335;46.652;21.272;2023-04-03T03:37:20;2.73;;;1.37;;
71513;SDS011;59335;46.652;21.272;2023-04-03T03:40:23;3.33;;;1.40;;
71513;SDS011;59335;46.652;21.272;2023-04-03T03:43:25;2.63;;;1.58;;
71513;SDS011;59335;46.652;21.272;2023-04-03T03:46:28;4.10;;;1.77;;
71513;SDS011;59335;46.652;21.272;2023-04-03T03:49:31;2.85;;;1.50;;
71513;SDS011;59335;46.652;21.272;2023-04-03T03:52:36;2.87;;;1.40;;
71513;SDS011;59335;46.652;21.272;2023-04-03T03:55:38;2.55;;;1.45;;
71513;SDS011;59335;46.652;21.272;2023-04-03T03:58:42;2.83;;;1.58;;
71513;SDS011;59335;46.652;21.272;2023-04-03T04:01:45;3.35;;;1.60;;
71513;SDS011;59335;46.652;21.272;2023-04-03T04:04:49;3.30;;;1.48;;
71513;SDS011;59335;46.652;21.272;2023-04-03T04:07:53;5.20;;;1.77;;
71513;SDS011;59335;46.652;21.272;2023-04-03T04:10:56;3.13;;;1.50;;
71513;SDS011;59335;46.652;21.272;2023-04-03T04:13:59;3.67;;;1.60;;
71513;SDS011;59335;46.652;21.272;2023-04-03T04:17:04;3.35;;;1.50;;
71513;SDS011;59335;46.652;21.272;2023-04-03T04:20:07;2.58;;;1.20;;
71513;SDS011;59335;46.652;21.272;2023-04-03T04:23:11;3.80;;;1.73;;
71513;SDS011;59335;46.652;21.272;2023-04-03T04:26:14;2.70;;;1.48;;
71513;SDS011;59335;46.652;21.272;2023-04-03T04:29:17;3.45;;;1.38;;
71513;SDS011;59335;46.652;21.272;2023-04-03T04:32:23;3.10;;;1.48;;
71513;SDS011;59335;46.652;21.272;2023-04-03T04:35:27;2.00;;;1.20;;
71513;SDS011;59335;46.652;21.272;2023-04-03T04:38:30;2.93;;;1.50;;
71513;SDS011;59335;46.652;21.272;2023-04-03T04:41:33;3.13;;;1.40;;
71513;SDS011;59335;46.652;21.272;2023-04-03T04:44:38;3.10;;;1.40;;
71513;SDS011;59335;46.652;21.272;2023-04-03T04:47:42;2.85;;;1.40;;
71513;SDS011;59335;46.652;21.272;2023-04-03T04:50:44;3.13;;;1.48;;
71513;SDS011;59335;46.652;21.272;2023-04-03T04:53:48;4.30;;;1.63;;
71513;SDS011;59335;46.652;21.272;2023-04-03T04:56:53;2.95;;;1.42;;
71513;SDS011;59335;46.652;21.272;2023-04-03T04:59:56;2.55;;;1.40;;
71513;SDS011;59335;46.652;21.272;2023-04-03T05:02:59;2.95;;;1.20;;
71513;SDS011;59335;46.652;21.272;2023-04-03T05:06:02;3.10;;;1.38;;
71513;SDS011;59335;46.652;21.272;2023-04-03T05:09:06;2.53;;;1.40;;
71513;SDS011;59335;46.652;21.272;2023-04-03T05:12:09;4.13;;;1.63;;
71513;SDS011;59335;46.652;21.272;2023-04-03T05:15:18;3.70;;;1.40;;
71513;SDS011;59335;46.652;21.272;2023-04-03T05:18:21;3.88;;;1.50;;
71513;SDS011;59335;46.652;21.272;2023-04-03T05:21:26;2.30;;;1.30;;
71513;SDS011;59335;46.652;21.272;2023-04-03T05:24:31;2.53;;;1.50;;
71513;SDS011;59335;46.652;21.272;2023-04-03T05:27:34;5.00;;;1.48;;
71513;SDS011;59335;46.652;21.272;2023-04-03T05:30:37;3.15;;;1.52;;
71513;SDS011;59335;46.652;21.272;2023-04-03T05:33:40;2.70;;;1.30;;
71513;SDS011;59335;46.652;21.272;2023-04-03T05:36:46;5.60;;;1.50;;
71513;SDS011;59335;46.652;21.272;2023-04-03T05:39:51;2.73;;;1.50;;
71513;SDS011;59335;46.652;21.272;2023-04-03T05:42:54;2.42;;;1.20;;
71513;SDS011;59335;46.652;21.272;2023-04-03T05:45:59;4.25;;;1.30;;
71513;SDS011;59335;46.652;21.272;2023-04-03T05:49:04;2.88;;;1.33;;
71513;SDS011;59335;46.652;21.272;2023-04-03T05:52:31;3.08;;;1.27;;
71513;SDS011;59335;46.652;21.272;2023-04-03T05:55:34;4.17;;;1.47;;
71513;SDS011;59335;46.652;21.272;2023-04-03T06:02:35;2.60;;;1.30;;
71513;SDS011;59335;46.652;21.272;2023-04-03T06:05:40;4.05;;;1.23;;
71513;SDS011;59335;46.652;21.272;2023-04-03T06:08:46;3.65;;;1.23;;
71513;SDS011;59335;46.652;21.272;2023-04-03T06:11:51;6.87;;;1.80;;
71513;SDS011;59335;46.652;21.272;2023-04-03T06:14:56;3.97;;;1.30;;
71513;SDS011;59335;46.652;21.272;2023-04-03T06:17:59;4.65;;;1.40;;
71513;SDS011;59335;46.652;21.272;2023-04-03T06:21:03;6.63;;;1.65;;
71513;SDS011;59335;46.652;21.272;2023-04-03T06:24:09;3.50;;;1.17;;
71513;SDS011;59335;46.652;21.272;2023-04-03T06:27:16;2.80;;;1.30;;
71513;SDS011;59335;46.652;21.272;2023-04-03T06:30:21;3.90;;;1.10;;
71513;SDS011;59335;46.652;21.272;2023-04-03T06:33:28;2.88;;;1.33;;
71513;SDS011;59335;46.652;21.272;2023-04-03T06:36:33;3.25;;;1.20;;
71513;SDS011;59335;46.652;21.272;2023-04-03T06:39:38;4.30;;;1.55;;
71513;SDS011;59335;46.652;21.272;2023-04-03T06:43:21;4.13;;;1.43;;
71513;SDS011;59335;46.652;21.272;2023-04-03T06:46:26;3.67;;;1.60;;
71513;SDS011;59335;46.652;21.272;2023-04-03T06:49:31;5.32;;;1.73;;
71513;SDS011;59335;46.652;21.272;2023-04-03T06:52:38;4.80;;;1.50;;
71513;SDS011;59335;46.652;21.272;2023-04-03T06:55:55;4.53;;;1.40;;
71513;SDS011;59335;46.652;21.272;2023-04-03T06:58:59;4.50;;;1.20;;
71513;SDS011;59335;46.652;21.272;2023-04-03T07:02:05;3.42;;;1.30;;
71513;SDS011;59335;46.652;21.272;2023-04-03T07:05:10;5.50;;;1.40;;
71513;SDS011;59335;46.652;21.272;2023-04-03T07:08:14;3.15;;;1.23;;
71513;SDS011;59335;46.652;21.272;2023-04-03T07:11:17;6.15;;;1.60;;
71513;SDS011;59335;46.652;21.272;2023-04-03T07:14:19;4.87;;;1.57;;
71513;SDS011;59335;46.652;21.272;2023-04-03T07:17:23;3.08;;;1.20;;
71513;SDS011;59335;46.652;21.272;2023-04-03T07:20:30;3.22;;;1.40;;
71513;SDS011;59335;46.652;21.272;2023-04-03T07:23:32;5.95;;;1.60;;
71513;SDS011;59335;46.652;21.272;2023-04-03T07:26:35;5.30;;;1.33;;
71513;SDS011;59335;46.652;21.272;2023-04-03T07:29:53;6.40;;;1.30;;
71513;SDS011;59335;46.652;21.272;2023-04-03T07:33:05;6.00;;;1.45;;
71513;SDS011;59335;46.652;21.272;2023-04-03T07:36:14;4.25;;;1.20;;
71513;SDS011;59335;46.652;21.272;2023-04-03T07:39:19;6.95;;;1.52;;
71513;SDS011;59335;46.652;21.272;2023-04-03T07:42:23;4.32;;;1.40;;
71513;SDS011;59335;46.652;21.272;2023-04-03T07:45:28;5.83;;;1.30;;
71513;SDS011;59335;46.652;21.272;2023-04-03T07:48:34;4.45;;;1.40;;
71513;SDS011;59335;46.652;21.272;2023-04-03T07:51:46;11.73;;;1.30;;
71513;SDS011;59335;46.652;21.272;2023-04-03T07:55:13;4.28;;;1.52;;
71513;SDS011;59335;46.652;21.272;2023-04-03T07:58:20;5.00;;;1.40;;
71513;SDS011;59335;46.652;21.272;2023-04-03T08:01:24;4.30;;;1.30;;
71513;SDS011;59335;46.652;21.272;2023-04-03T08:04:27;5.93;;;1.20;;
71513;SDS011;59335;46.652;21.272;2023-04-03T08:07:30;5.57;;;1.50;;
71513;SDS011;59335;46.652;21.272;2023-04-03T08:10:33;5.20;;;1.40;;
71513;SDS011;59335;46.652;21.272;2023-04-03T08:13:37;4.40;;;1.50;;
71513;SDS011;59335;46.652;21.272;2023-04-03T08:16:43;6.50;;;1.40;;
71513;SDS011;59335;46.652;21.272;2023-04-03T08:19:49;4.10;;;1.42;;
71513;SDS011;59335;46.652;21.272;2023-04-03T08:22:53;6.38;;;1.27;;
71513;SDS011;59335;46.652;21.272;2023-04-03T08:25:56;5.85;;;1.58;;
71513;SDS011;59335;46.652;21.272;2023-04-03T08:28:59;7.72;;;1.85;;
71513;SDS011;59335;46.652;21.272;2023-04-03T08:32:02;6.40;;;1.50;;
71513;SDS011;59335;46.652;21.272;2023-04-03T08:35:07;5.85;;;1.45;;
71513;SDS011;59335;46.652;21.272;2023-04-03T08:38:12;4.32;;;1.33;;
71513;SDS011;59335;46.652;21.272;2023-04-03T08:41:21;5.25;;;1.38;;
71513;SDS011;59335;46.652;21.272;2023-04-03T08:44:47;2.47;;;1.02;;
71513;SDS011;59335;46.652;21.272;2023-04-03T08:51:15;2.97;;;1.10;;
71513;SDS011;59335;46.652;21.272;2023-04-03T08:54:33;8.27;;;1.42;;
71513;SDS011;59335;46.652;21.272;2023-04-03T08:57:43;5.43;;;1.58;;
71513;SDS011;59335;46.652;21.272;2023-04-03T09:04:15;10.10;;;1.60;;
71513;SDS011;59335;46.652;21.272;2023-04-03T09:07:43;5.10;;;1.52;;
71513;SDS011;59335;46.652;21.272;2023-04-03T09:10:51;5.85;;;1.50;;
71513;SDS011;59335;46.652;21.272;2023-04-03T09:20:52;8.00;;;1.30;;
71513;SDS011;59335;46.652;21.272;2023-04-03T09:24:02;5.90;;;1.23;;
71513;SDS011;59335;46.652;21.272;2023-04-03T09:27:10;8.95;;;1.80;;
71513;SDS011;59335;46.652;21.272;2023-04-03T09:30:17;7.85;;;1.35;;
71513;SDS011;59335;46.652;21.272;2023-04-03T09:33:22;7.60;;;1.27;;
71513;SDS011;59335;46.652;21.272;2023-04-03T09:36:45;5.83;;;1.10;;
71513;SDS011;59335;46.652;21.272;2023-04-03T09:39:52;4.75;;;1.48;;
71513;SDS011;59335;46.652;21.272;2023-04-03T09:42:57;4.78;;;1.45;;
71513;SDS011;59335;46.652;21.272;2023-04-03T09:46:32;4.00;;;1.40;;
71513;SDS011;59335;46.652;21.272;2023-04-03T09:49:37;6.30;;;1.20;;
71513;SDS011;59335;46.652;21.272;2023-04-03T09:52:44;6.53;;;1.43;;
71513;SDS011;59335;46.652;21.272;2023-04-03T09:55:48;5.78;;;1.20;;
71513;SDS011;59335;46.652;21.272;2023-04-03T10:08:41;10.20;;;1.57;;
71513;SDS011;59335;46.652;21.272;2023-04-03T10:15:10;7.13;;;1.40;;
71513;SDS011;59335;46.652;21.272;2023-04-03T10:22:15;5.18;;;1.20;;
71513;SDS011;59335;46.652;21.272;2023-04-03T10:25:59;5.20;;;1.30;;
71513;SDS011;59335;46.652;21.272;2023-04-03T10:32:33;7.82;;;1.42;;
71513;SDS011;59335;46.652;21.272;2023-04-03T10:36:12;7.10;;;1.80;;
71513;SDS011;59335;46.652;21.272;2023-04-03T10:39:37;10.18;;;1.33;;
71513;SDS011;59335;46.652;21.272;2023-04-03T10:46:32;5.45;;;1.25;;
71513;SDS011;59335;46.652;21.272;2023-04-03T10:56:41;8.43;;;1.33;;
71513;SDS011;59335;46.652;21.272;2023-04-03T11:00:22;6.37;;;1.23;;
71513;SDS011;59335;46.652;21.272;2023-04-03T11:03:45;5.18;;;1.20;;
71513;SDS011;59335;46.652;21.272;2023-04-03T11:07:00;6.35;;;1.58;;
71513;SDS011;59335;46.652;21.272;2023-04-03T11:10:13;7.22;;;1.40;;
71513;SDS011;59335;46.652;21.272;2023-04-03T11:13:33;5.10;;;1.38;;
71513;SDS011;59335;46.652;21.272;2023-04-03T11:16:40;4.73;;;1.40;;
71513;SDS011;59335;46.652;21.272;2023-04-03T11:20:04;7.72;;;1.40;;
71513;SDS011;59335;46.652;21.272;2023-04-03T11:23:34;8.27;;;1.85;;
71513;SDS011;59335;46.652;21.272;2023-04-03T11:26:50;6.20;;;1.58;;
71513;SDS011;59335;46.652;21.272;2023-04-03T11:29:56;7.40;;;1.27;;
71513;SDS011;59335;46.652;21.272;2023-04-03T11:36:18;6.90;;;1.30;;
71513;SDS011;59335;46.652;21.272;2023-04-03T11:39:33;7.10;;;1.25;;
71513;SDS011;59335;46.652;21.272;2023-04-03T11:46:05;6.63;;;1.30;;
71513;SDS011;59335;46.652;21.272;2023-04-03T11:56:31;12.55;;;1.40;;
71513;SDS011;59335;46.652;21.272;2023-04-03T11:59:36;8.30;;;1.30;;
71513;SDS011;59335;46.652;21.272;2023-04-03T12:02:40;7.63;;;1.58;;
71513;SDS011;59335;46.652;21.272;2023-04-03T12:12:55;8.35;;;1.38;;
71513;SDS011;59335;46.652;21.272;2023-04-03T12:16:00;8.32;;;1.40;;
71513;SDS011;59335;46.652;21.272;2023-04-03T12:22:25;5.00;;;1.20;;
71513;SDS011;59335;46.652;21.272;2023-04-03T12:25:45;6.78;;;1.20;;
71513;SDS011;59335;46.652;21.272;2023-04-03T12:28:52;8.30;;;1.27;;
71513;SDS011;59335;46.652;21.272;2023-04-03T12:38:39;9.37;;;1.40;;
71513;SDS011;59335;46.652;21.272;2023-04-03T12:42:29;7.65;;;1.35;;
71513;SDS011;59335;46.652;21.272;2023-04-03T12:45:39;9.40;;;1.60;;
71513;SDS011;59335;46.652;21.272;2023-04-03T12:48:52;10.50;;;1.45;;
71513;SDS011;59335;46.652;21.272;2023-04-03T12:51:59;12.40;;;1.30;;
71513;SDS011;59335;46.652;21.272;2023-04-03T12:55:07;14.37;;;1.50;;
71513;SDS011;59335;46.652;21.272;2023-04-03T12:58:23;7.43;;;1.20;;
71513;SDS011;59335;46.652;21.272;2023-04-03T13:01:29;5.55;;;1.23;;
71513;SDS011;59335;46.652;21.272;2023-04-03T13:04:32;6.82;;;1.45;;
71513;SDS011;59335;46.652;21.272;2023-04-03T13:07:35;6.47;;;1.10;;
71513;SDS011;59335;46.652;21.272;2023-04-03T13:14:21;7.03;;;1.20;;
71513;SDS011;59335;46.652;21.272;2023-04-03T13:17:25;7.93;;;1.20;;
71513;SDS011;59335;46.652;21.272;2023-04-03T13:20:31;8.23;;;1.10;;
71513;SDS011;59335;46.652;21.272;2023-04-03T13:23:36;8.63;;;1.50;;
71513;SDS011;59335;46.652;21.272;2023-04-03T13:26:43;9.03;;;1.43;;
71513;SDS011;59335;46.652;21.272;2023-04-03T13:29:49;8.50;;;1.30;;
71513;SDS011;59335;46.652;21.272;2023-04-03T13:32:57;7.22;;;1.65;;
71513;SDS011;59335;46.652;21.272;2023-04-03T13:36:22;7.90;;;1.30;;
71513;SDS011;59335;46.652;21.272;2023-04-03T13:39:32;7.60;;;1.38;;
71513;SDS011;59335;46.652;21.272;2023-04-03T13:42:40;7.43;;;1.30;;
71513;SDS011;59335;46.652;21.272;2023-04-03T13:46:23;7.80;;;1.10;;
71513;SDS011;59335;46.652;21.272;2023-04-03T13:49:31;7.78;;;1.30;;
71513;SDS011;59335;46.652;21.272;2023-04-03T13:52:40;8.82;;;1.20;;
71513;SDS011;59335;46.652;21.272;2023-04-03T13:56:06;8.95;;;1.30;;
71513;SDS011;59335;46.652;21.272;2023-04-03T14:02:16;9.75;;;1.45;;
71513;SDS011;59335;46.652;21.272;2023-04-03T14:05:45;6.22;;;1.40;;
71513;SDS011;59335;46.652;21.272;2023-04-03T14:08:49;7.10;;;1.10;;
71513;SDS011;59335;46.652;21.272;2023-04-03T14:11:54;7.70;;;1.38;;
71513;SDS011;59335;46.652;21.272;2023-04-03T14:15:00;5.63;;;1.17;;
71513;SDS011;59335;46.652;21.272;2023-04-03T14:18:03;5.57;;;1.02;;
71513;SDS011;59335;46.652;21.272;2023-04-03T14:21:10;9.18;;;1.40;;
71513;SDS011;59335;46.652;21.272;2023-04-03T14:24:16;10.50;;;1.30;;
71513;SDS011;59335;46.652;21.272;2023-04-03T14:27:23;8.27;;;1.33;;
71513;SDS011;59335;46.652;21.272;2023-04-03T14:30:33;8.57;;;1.53;;
71513;SDS011;59335;46.652;21.272;2023-04-03T14:33:38;8.90;;;1.15;;
71513;SDS011;59335;46.652;21.272;2023-04-03T14:36:41;8.88;;;1.40;;
71513;SDS011;59335;46.652;21.272;2023-04-03T14:39:45;8.30;;;1.90;;
71513;SDS011;59335;46.652;21.272;2023-04-03T14:42:49;5.10;;;1.08;;
71513;SDS011;59335;46.652;21.272;2023-04-03T14:45:52;7.17;;;1.13;;
71513;SDS011;59335;46.652;21.272;2023-04-03T14:48:55;7.78;;;1.30;;
71513;SDS011;59335;46.652;21.272;2023-04-03T14:51:58;8.30;;;1.20;;
71513;SDS011;59335;46.652;21.272;2023-04-03T14:55:01;11.25;;;1.55;;
71513;SDS011;59335;46.652;21.272;2023-04-03T14:58:07;4.10;;;1.58;;
71513;SDS011;59335;46.652;21.272;2023-04-03T15:01:14;7.40;;;1.37;;
71513;SDS011;59335;46.652;21.272;2023-04-03T15:04:18;10.50;;;1.30;;
71513;SDS011;59335;46.652;21.272;2023-04-03T15:07:23;21.00;;;1.77;;
71513;SDS011;59335;46.652;21.272;2023-04-03T15:10:29;23.13;;;2.25;;
71513;SDS011;59335;46.652;21.272;2023-04-03T15:13:33;11.55;;;1.60;;
71513;SDS011;59335;46.652;21.272;2023-04-03T15:16:35;16.30;;;1.70;;
71513;SDS011;59335;46.652;21.272;2023-04-03T15:19:39;14.35;;;1.60;;
71513;SDS011;59335;46.652;21.272;2023-04-03T15:22:42;12.60;;;1.63;;
71513;SDS011;59335;46.652;21.272;2023-04-03T15:25:46;11.68;;;1.40;;
71513;SDS011;59335;46.652;21.272;2023-04-03T15:28:51;9.88;;;1.83;;
71513;SDS011;59335;46.652;21.272;2023-04-03T15:31:53;13.33;;;2.00;;
71513;SDS011;59335;46.652;21.272;2023-04-03T15:34:57;8.68;;;1.80;;
71513;SDS011;59335;46.652;21.272;2023-04-03T15:37:59;14.50;;;1.80;;
71513;SDS011;59335;46.652;21.272;2023-04-03T15:41:02;12.35;;;1.60;;
71513;SDS011;59335;46.652;21.272;2023-04-03T15:44:05;9.50;;;1.52;;
71513;SDS011;59335;46.652;21.272;2023-04-03T15:47:07;8.47;;;1.40;;
71513;SDS011;59335;46.652;21.272;2023-04-03T15:50:10;13.80;;;1.70;;
71513;SDS011;59335;46.652;21.272;2023-04-03T15:53:13;11.85;;;1.85;;
71513;SDS011;59335;46.652;21.272;2023-04-03T15:56:16;10.50;;;1.75;;
71513;SDS011;59335;46.652;21.272;2023-04-03T15:59:20;9.02;;;1.95;;
71513;SDS011;59335;46.652;21.272;2023-04-03T16:02:24;12.17;;;1.90;;
71513;SDS011;59335;46.652;21.272;2023-04-03T16:05:29;9.60;;;1.55;;
71513;SDS011;59335;46.652;21.272;2023-04-03T16:08:33;12.77;;;1.50;;
71513;SDS011;59335;46.652;21.272;2023-04-03T16:11:38;8.73;;;1.33;;
71513;SDS011;59335;46.652;21.272;2023-04-03T16:14:42;11.27;;;1.70;;
71513;SDS011;59335;46.652;21.272;2023-04-03T16:17:44;9.37;;;1.90;;
71513;SDS011;59335;46.652;21.272;2023-04-03T16:20:51;9.65;;;1.92;;
71513;SDS011;59335;46.652;21.272;2023-04-03T16:23:56;7.53;;;1.65;;
71513;SDS011;59335;46.652;21.272;2023-04-03T16:27:00;11.57;;;1.85;;
71513;SDS011;59335;46.652;21.272;2023-04-03T16:30:03;6.90;;;1.70;;
71513;SDS011;59335;46.652;21.272;2023-04-03T16:33:08;8.80;;;1.67;;
71513;SDS011;59335;46.652;21.272;2023-04-03T16:36:11;9.10;;;1.40;;
71513;SDS011;59335;46.652;21.272;2023-04-03T16:39:14;7.28;;;1.20;;
71513;SDS011;59335;46.652;21.272;2023-04-03T16:42:17;8.70;;;1.40;;
71513;SDS011;59335;46.652;21.272;2023-04-03T16:45:20;9.73;;;1.30;;
71513;SDS011;59335;46.652;21.272;2023-04-03T16:48:22;10.67;;;1.47;;
71513;SDS011;59335;46.652;21.272;2023-04-03T16:51:25;10.25;;;1.60;;
71513;SDS011;59335;46.652;21.272;2023-04-03T16:54:28;7.28;;;1.35;;
71513;SDS011;59335;46.652;21.272;2023-04-03T16:57:31;8.20;;;1.70;;
71513;SDS011;59335;46.652;21.272;2023-04-03T17:00:34;11.32;;;1.38;;
71513;SDS011;59335;46.652;21.272;2023-04-03T17:03:38;10.70;;;1.70;;
71513;SDS011;59335;46.652;21.272;2023-04-03T17:06:42;8.10;;;1.58;;
71513;SDS011;59335;46.652;21.272;2023-04-03T17:09:45;7.60;;;1.83;;
71513;SDS011;59335;46.652;21.272;2023-04-03T17:12:48;7.93;;;1.70;;
71513;SDS011;59335;46.652;21.272;2023-04-03T17:15:50;10.63;;;1.60;;
71513;SDS011;59335;46.652;21.272;2023-04-03T17:18:54;4.63;;;1.27;;
71513;SDS011;59335;46.652;21.272;2023-04-03T17:21:58;7.07;;;1.25;;
71513;SDS011;59335;46.652;21.272;2023-04-03T17:25:01;8.32;;;1.67;;
71513;SDS011;59335;46.652;21.272;2023-04-03T17:28:05;7.78;;;1.55;;
71513;SDS011;59335;46.652;21.272;2023-04-03T17:31:08;11.07;;;1.80;;
71513;SDS011;59335;46.652;21.272;2023-04-03T17:34:11;8.87;;;2.10;;
71513;SDS011;59335;46.652;21.272;2023-04-03T17:37:14;7.47;;;1.58;;
71513;SDS011;59335;46.652;21.272;2023-04-03T17:40:17;7.72;;;1.45;;
71513;SDS011;59335;46.652;21.272;2023-04-03T17:43:21;7.03;;;1.70;;
71513;SDS011;59335;46.652;21.272;2023-04-03T17:46:24;8.98;;;1.52;;
71513;SDS011;59335;46.652;21.272;2023-04-03T17:49:28;9.50;;;1.47;;
71513;SDS011;59335;46.652;21.272;2023-04-03T17:52:31;8.52;;;1.60;;
71513;SDS011;59335;46.652;21.272;2023-04-03T17:55:37;10.23;;;1.60;;
71513;SDS011;59335;46.652;21.272;2023-04-03T17:58:41;13.48;;;1.67;;
71513;SDS011;59335;46.652;21.272;2023-04-03T18:01:46;8.85;;;1.50;;
71513;SDS011;59335;46.652;21.272;2023-04-03T18:04:50;8.07;;;1.50;;
71513;SDS011;59335;46.652;21.272;2023-04-03T18:07:54;6.43;;;1.50;;
71513;SDS011;59335;46.652;21.272;2023-04-03T18:10:59;10.25;;;1.48;;
71513;SDS011;59335;46.652;21.272;2023-04-03T18:14:04;9.02;;;1.67;;
71513;SDS011;59335;46.652;21.272;2023-04-03T18:17:10;7.57;;;1.30;;
71513;SDS011;59335;46.652;21.272;2023-04-03T18:20:13;10.17;;;1.77;;
71513;SDS011;59335;46.652;21.272;2023-04-03T18:23:18;6.95;;;1.58;;
71513;SDS011;59335;46.652;21.272;2023-04-03T18:26:21;6.68;;;1.70;;
71513;SDS011;59335;46.652;21.272;2023-04-03T18:29:31;9.73;;;1.40;;
71513;SDS011;59335;46.652;21.272;2023-04-03T18:32:37;8.07;;;1.60;;
71513;SDS011;59335;46.652;21.272;2023-04-03T18:35:42;10.47;;;1.57;;
71513;SDS011;59335;46.652;21.272;2023-04-03T18:38:46;7.60;;;2.28;;
71513;SDS011;59335;46.652;21.272;2023-04-03T18:41:49;8.27;;;1.50;;
71513;SDS011;59335;46.652;21.272;2023-04-03T18:44:58;7.53;;;1.70;;
71513;SDS011;59335;46.652;21.272;2023-04-03T18:48:05;6.88;;;1.45;;
71513;SDS011;59335;46.652;21.272;2023-04-03T18:51:09;7.90;;;1.50;;
71513;SDS011;59335;46.652;21.272;2023-04-03T18:54:14;5.30;;;1.58;;
71513;SDS011;59335;46.652;21.272;2023-04-03T18:57:24;7.70;;;1.75;;
71513;SDS011;59335;46.652;21.272;2023-04-03T19:00:28;11.70;;;1.60;;
71513;SDS011;59335;46.652;21.272;2023-04-03T19:03:33;8.23;;;1.77;;
71513;SDS011;59335;46.652;21.272;2023-04-03T19:06:42;6.83;;;1.90;;
71513;SDS011;59335;46.652;21.272;2023-04-03T19:09:45;8.77;;;1.85;;
71513;SDS011;59335;46.652;21.272;2023-04-03T19:12:50;6.90;;;1.63;;
71513;SDS011;59335;46.652;21.272;2023-04-03T19:15:55;9.63;;;1.70;;
71513;SDS011;59335;46.652;21.272;2023-04-03T19:19:01;8.00;;;1.65;;
71513;SDS011;59335;46.652;21.272;2023-04-03T19:22:04;6.20;;;1.30;;
71513;SDS011;59335;46.652;21.272;2023-04-03T19:25:09;7.15;;;1.40;;
71513;SDS011;59335;46.652;21.272;2023-04-03T19:28:14;6.25;;;1.40;;
71513;SDS011;59335;46.652;21.272;2023-04-03T19:31:19;8.95;;;1.80;;
71513;SDS011;59335;46.652;21.272;2023-04-03T19:34:23;7.20;;;1.77;;
71513;SDS011;59335;46.652;21.272;2023-04-03T19:37:27;6.63;;;1.33;;
71513;SDS011;59335;46.652;21.272;2023-04-03T19:40:31;7.72;;;1.60;;
71513;SDS011;59335;46.652;21.272;2023-04-03T19:43:35;7.38;;;1.77;;
71513;SDS011;59335;46.652;21.272;2023-04-03T19:46:40;8.02;;;1.40;;
71513;SDS011;59335;46.652;21.272;2023-04-03T19:49:53;6.03;;;1.55;;
71513;SDS011;59335;46.652;21.272;2023-04-03T19:52:56;6.70;;;1.73;;
71513;SDS011;59335;46.652;21.272;2023-04-03T19:56:00;6.15;;;1.58;;
71513;SDS011;59335;46.652;21.272;2023-04-03T19:59:03;6.35;;;1.40;;